CheckWX is a tool to help pilots better visualize weather data.  It is not intended as a substitute for an official pre-flight weather briefing.

08:04:32 UTC

KRSL TAF
Russell Municipal Airport
Russell, Kansas, USA
KRSL 190520Z 1906/2006 08009KT P6SM VCSH OVC080 FM191600 08007KT P6SM BKN080 FM191700 02007KT P6SM BKN060 FM192000 36012KT P6SM OVC025 FM200200 35008KT P6SM BKN045

Mar-19@
06:00 UTC

Mar-19 @ 06:00 UTC

Mar-19@
16:00 UTC

Mar-19 @ 16:00 UTC

KRSL 190520Z 1906/2006 08009KT P6SM VCSH OVC080
Wind
  • 080° at 9 KTS
Cloud Levels
  • Overcast at 8,000' AGL

Mar-19@
16:00 UTC

Mar-19 @ 16:00 UTC

Mar-19@
17:00 UTC

Mar-19 @ 17:00 UTC

FM191600 08007KT P6SM BKN080

From

From Standard forecast or significant change

Wind
  • 080° at 7 KTS
Cloud Levels
  • Broken at 8,000' AGL

Mar-19@
17:00 UTC

Mar-19 @ 17:00 UTC

Mar-19@
20:00 UTC

Mar-19 @ 20:00 UTC

FM191700 02007KT P6SM BKN060

From

From Standard forecast or significant change

Wind
  • 020° at 7 KTS
Cloud Levels
  • Broken at 6,000' AGL

Mar-19@
20:00 UTC

Mar-19 @ 20:00 UTC

Mar-20@
02:00 UTC

Mar-20 @ 02:00 UTC

FM192000 36012KT P6SM OVC025

From

From Standard forecast or significant change

Wind
  • 360° at 12 KTS
Cloud Levels
  • Overcast at 2,500' AGL

Mar-20@
02:00 UTC

Mar-20 @ 02:00 UTC

Mar-20@
06:00 UTC

Mar-20 @ 06:00 UTC

FM200200 35008KT P6SM BKN045

From

From Standard forecast or significant change

Wind
  • 350° at 8 KTS
Cloud Levels
  • Broken at 4,500' AGL